sensor_id;sensor_type;location;lat;lon;timestamp;P1;durP1;ratioP1;P2;durP2;ratioP2
59880;SDS011;45751;51.380;10.326;2023-05-10T00:01:27;8.00;;;2.70;;
59880;SDS011;45751;51.380;10.326;2023-05-10T00:03:54;8.27;;;2.90;;
59880;SDS011;45751;51.380;10.326;2023-05-10T00:06:21;9.10;;;3.25;;
59880;SDS011;45751;51.380;10.326;2023-05-10T00:08:48;8.32;;;3.13;;
59880;SDS011;45751;51.380;10.326;2023-05-10T00:11:15;8.77;;;2.80;;
59880;SDS011;45751;51.380;10.326;2023-05-10T00:13:42;8.20;;;3.58;;
59880;SDS011;45751;51.380;10.326;2023-05-10T00:16:09;8.85;;;3.50;;
59880;SDS011;45751;51.380;10.326;2023-05-10T00:18:35;8.00;;;3.50;;
59880;SDS011;45751;51.380;10.326;2023-05-10T00:21:02;8.55;;;3.00;;
59880;SDS011;45751;51.380;10.326;2023-05-10T00:23:29;8.13;;;3.55;;
59880;SDS011;45751;51.380;10.326;2023-05-10T00:25:56;6.95;;;2.60;;
59880;SDS011;45751;51.380;10.326;2023-05-10T00:28:23;8.38;;;3.20;;
59880;SDS011;45751;51.380;10.326;2023-05-10T00:30:50;9.63;;;3.08;;
59880;SDS011;45751;51.380;10.326;2023-05-10T00:33:17;8.10;;;3.05;;
59880;SDS011;45751;51.380;10.326;2023-05-10T00:35:44;7.75;;;3.03;;
59880;SDS011;45751;51.380;10.326;2023-05-10T00:38:11;9.20;;;3.28;;
59880;SDS011;45751;51.380;10.326;2023-05-10T00:40:38;7.70;;;2.67;;
59880;SDS011;45751;51.380;10.326;2023-05-10T00:43:10;7.00;;;3.42;;
59880;SDS011;45751;51.380;10.326;2023-05-10T00:45:37;8.40;;;3.22;;
59880;SDS011;45751;51.380;10.326;2023-05-10T00:48:05;7.57;;;2.85;;
59880;SDS011;45751;51.380;10.326;2023-05-10T00:50:32;7.70;;;3.10;;
59880;SDS011;45751;51.380;10.326;2023-05-10T00:53:00;8.63;;;3.45;;
59880;SDS011;45751;51.380;10.326;2023-05-10T00:55:28;9.70;;;3.35;;
59880;SDS011;45751;51.380;10.326;2023-05-10T00:57:55;8.27;;;3.20;;
59880;SDS011;45751;51.380;10.326;2023-05-10T01:00:22;10.98;;;3.45;;
59880;SDS011;45751;51.380;10.326;2023-05-10T01:02:49;7.88;;;3.55;;
59880;SDS011;45751;51.380;10.326;2023-05-10T01:05:16;8.98;;;3.20;;
59880;SDS011;45751;51.380;10.326;2023-05-10T01:07:43;7.40;;;3.20;;
59880;SDS011;45751;51.380;10.326;2023-05-10T01:10:10;7.93;;;3.00;;
59880;SDS011;45751;51.380;10.326;2023-05-10T01:12:39;8.07;;;3.53;;
59880;SDS011;45751;51.380;10.326;2023-05-10T01:15:07;15.10;;;3.28;;
59880;SDS011;45751;51.380;10.326;2023-05-10T01:17:37;7.90;;;3.13;;
59880;SDS011;45751;51.380;10.326;2023-05-10T01:20:07;7.57;;;3.10;;
59880;SDS011;45751;51.380;10.326;2023-05-10T01:23:02;11.43;;;3.08;;
59880;SDS011;45751;51.380;10.326;2023-05-10T01:28:42;8.82;;;2.92;;
59880;SDS011;45751;51.380;10.326;2023-05-10T01:34:02;6.45;;;2.47;;
59880;SDS011;45751;51.380;10.326;2023-05-10T01:36:58;10.20;;;3.35;;
59880;SDS011;45751;51.380;10.326;2023-05-10T01:39:34;8.05;;;3.15;;
59880;SDS011;45751;51.380;10.326;2023-05-10T01:42:16;7.50;;;2.92;;
59880;SDS011;45751;51.380;10.326;2023-05-10T01:44:56;7.50;;;3.30;;
59880;SDS011;45751;51.380;10.326;2023-05-10T01:50:15;8.18;;;3.17;;
59880;SDS011;45751;51.380;10.326;2023-05-10T01:52:53;11.23;;;3.20;;
59880;SDS011;45751;51.380;10.326;2023-05-10T01:55:23;12.00;;;3.20;;
59880;SDS011;45751;51.380;10.326;2023-05-10T01:58:00;7.55;;;2.92;;
59880;SDS011;45751;51.380;10.326;2023-05-10T02:00:32;9.63;;;3.13;;
59880;SDS011;45751;51.380;10.326;2023-05-10T02:03:03;9.07;;;3.17;;
59880;SDS011;45751;51.380;10.326;2023-05-10T02:05:33;8.13;;;3.30;;
59880;SDS011;45751;51.380;10.326;2023-05-10T02:08:02;9.13;;;3.42;;
59880;SDS011;45751;51.380;10.326;2023-05-10T02:13:03;8.82;;;3.15;;
59880;SDS011;45751;51.380;10.326;2023-05-10T02:15:33;8.37;;;3.30;;
59880;SDS011;45751;51.380;10.326;2023-05-10T02:18:01;10.55;;;3.45;;
59880;SDS011;45751;51.380;10.326;2023-05-10T02:20:30;9.30;;;3.40;;
59880;SDS011;45751;51.380;10.326;2023-05-10T02:22:58;9.05;;;3.30;;
59880;SDS011;45751;51.380;10.326;2023-05-10T02:25:28;7.50;;;3.03;;
59880;SDS011;45751;51.380;10.326;2023-05-10T02:27:57;8.23;;;2.85;;
59880;SDS011;45751;51.380;10.326;2023-05-10T02:30:27;9.32;;;3.65;;
59880;SDS011;45751;51.380;10.326;2023-05-10T02:32:56;7.38;;;2.58;;
59880;SDS011;45751;51.380;10.326;2023-05-10T02:35:25;8.40;;;3.13;;
59880;SDS011;45751;51.380;10.326;2023-05-10T02:37:53;7.97;;;2.88;;
59880;SDS011;45751;51.380;10.326;2023-05-10T02:40:21;7.25;;;3.08;;
59880;SDS011;45751;51.380;10.326;2023-05-10T02:42:54;7.63;;;3.15;;
59880;SDS011;45751;51.380;10.326;2023-05-10T02:45:23;8.82;;;3.95;;
59880;SDS011;45751;51.380;10.326;2023-05-10T02:47:54;7.55;;;3.25;;
59880;SDS011;45751;51.380;10.326;2023-05-10T02:50:22;10.23;;;3.33;;
59880;SDS011;45751;51.380;10.326;2023-05-10T02:52:51;7.45;;;3.22;;
59880;SDS011;45751;51.380;10.326;2023-05-10T02:55:25;8.45;;;3.45;;
59880;SDS011;45751;51.380;10.326;2023-05-10T02:57:59;8.63;;;3.63;;
59880;SDS011;45751;51.380;10.326;2023-05-10T03:00:27;9.85;;;3.63;;
59880;SDS011;45751;51.380;10.326;2023-05-10T03:02:55;9.30;;;3.42;;
59880;SDS011;45751;51.380;10.326;2023-05-10T03:05:23;8.10;;;3.72;;
59880;SDS011;45751;51.380;10.326;2023-05-10T03:07:50;8.20;;;3.45;;
59880;SDS011;45751;51.380;10.326;2023-05-10T03:10:18;8.38;;;3.45;;
59880;SDS011;45751;51.380;10.326;2023-05-10T03:13:09;9.10;;;3.97;;
59880;SDS011;45751;51.380;10.326;2023-05-10T03:21:21;10.63;;;4.20;;
59880;SDS011;45751;51.380;10.326;2023-05-10T03:23:56;8.77;;;3.72;;
59880;SDS011;45751;51.380;10.326;2023-05-10T03:26:27;9.35;;;3.83;;
59880;SDS011;45751;51.380;10.326;2023-05-10T03:29:05;10.13;;;3.85;;
59880;SDS011;45751;51.380;10.326;2023-05-10T03:31:33;10.48;;;3.92;;
59880;SDS011;45751;51.380;10.326;2023-05-10T03:34:00;9.68;;;3.95;;
59880;SDS011;45751;51.380;10.326;2023-05-10T03:36:27;10.00;;;3.95;;
59880;SDS011;45751;51.380;10.326;2023-05-10T03:38:54;11.65;;;4.78;;
59880;SDS011;45751;51.380;10.326;2023-05-10T03:41:21;9.07;;;4.25;;
59880;SDS011;45751;51.380;10.326;2023-05-10T03:43:48;9.35;;;4.10;;
59880;SDS011;45751;51.380;10.326;2023-05-10T03:46:15;9.55;;;3.92;;
59880;SDS011;45751;51.380;10.326;2023-05-10T03:48:43;9.73;;;4.00;;
59880;SDS011;45751;51.380;10.326;2023-05-10T03:51:10;10.07;;;4.13;;
59880;SDS011;45751;51.380;10.326;2023-05-10T03:53:38;11.48;;;4.43;;
59880;SDS011;45751;51.380;10.326;2023-05-10T03:56:05;8.30;;;3.63;;
59880;SDS011;45751;51.380;10.326;2023-05-10T03:58:32;8.95;;;4.32;;
59880;SDS011;45751;51.380;10.326;2023-05-10T04:00:58;10.25;;;4.30;;
59880;SDS011;45751;51.380;10.326;2023-05-10T04:03:25;11.13;;;4.72;;
59880;SDS011;45751;51.380;10.326;2023-05-10T04:05:59;9.95;;;4.07;;
59880;SDS011;45751;51.380;10.326;2023-05-10T04:08:28;10.45;;;4.18;;
59880;SDS011;45751;51.380;10.326;2023-05-10T04:11:08;9.10;;;4.10;;
59880;SDS011;45751;51.380;10.326;2023-05-10T04:13:36;11.98;;;4.97;;
59880;SDS011;45751;51.380;10.326;2023-05-10T04:16:04;10.73;;;4.57;;
59880;SDS011;45751;51.380;10.326;2023-05-10T04:18:31;9.20;;;4.18;;
59880;SDS011;45751;51.380;10.326;2023-05-10T04:20:58;10.57;;;4.45;;
59880;SDS011;45751;51.380;10.326;2023-05-10T04:23:25;33.10;;;16.02;;
59880;SDS011;45751;51.380;10.326;2023-05-10T04:25:58;43.35;;;24.35;;
59880;SDS011;45751;51.380;10.326;2023-05-10T04:28:26;29.27;;;12.77;;
59880;SDS011;45751;51.380;10.326;2023-05-10T04:30:53;36.17;;;18.85;;
59880;SDS011;45751;51.380;10.326;2023-05-10T04:33:26;38.13;;;17.88;;
59880;SDS011;45751;51.380;10.326;2023-05-10T04:35:53;33.95;;;15.13;;
59880;SDS011;45751;51.380;10.326;2023-05-10T04:38:20;18.85;;;8.30;;
59880;SDS011;45751;51.380;10.326;2023-05-10T04:40:47;13.10;;;5.75;;
59880;SDS011;45751;51.380;10.326;2023-05-10T04:43:13;10.88;;;5.05;;
59880;SDS011;45751;51.380;10.326;2023-05-10T04:45:40;11.00;;;5.28;;
59880;SDS011;45751;51.380;10.326;2023-05-10T04:48:07;10.77;;;4.85;;
59880;SDS011;45751;51.380;10.326;2023-05-10T04:50:34;10.52;;;4.30;;
59880;SDS011;45751;51.380;10.326;2023-05-10T04:53:01;10.57;;;4.90;;
59880;SDS011;45751;51.380;10.326;2023-05-10T04:55:27;10.95;;;4.88;;
59880;SDS011;45751;51.380;10.326;2023-05-10T04:57:54;11.60;;;5.07;;
59880;SDS011;45751;51.380;10.326;2023-05-10T05:00:23;11.13;;;5.03;;
59880;SDS011;45751;51.380;10.326;2023-05-10T05:02:50;12.63;;;4.65;;
59880;SDS011;45751;51.380;10.326;2023-05-10T05:05:17;15.82;;;6.65;;
59880;SDS011;45751;51.380;10.326;2023-05-10T05:07:44;20.98;;;11.32;;
59880;SDS011;45751;51.380;10.326;2023-05-10T05:10:12;32.20;;;13.70;;
59880;SDS011;45751;51.380;10.326;2023-05-10T05:12:39;15.88;;;6.95;;
59880;SDS011;45751;51.380;10.326;2023-05-10T05:15:06;12.73;;;5.30;;
59880;SDS011;45751;51.380;10.326;2023-05-10T05:17:35;12.35;;;5.43;;
59880;SDS011;45751;51.380;10.326;2023-05-10T05:20:02;19.40;;;8.50;;
59880;SDS011;45751;51.380;10.326;2023-05-10T05:22:29;38.35;;;16.75;;
59880;SDS011;45751;51.380;10.326;2023-05-10T05:24:56;32.28;;;15.57;;
59880;SDS011;45751;51.380;10.326;2023-05-10T05:27:24;21.50;;;9.45;;
59880;SDS011;45751;51.380;10.326;2023-05-10T05:29:55;16.92;;;7.22;;
59880;SDS011;45751;51.380;10.326;2023-05-10T05:32:23;17.30;;;7.63;;
59880;SDS011;45751;51.380;10.326;2023-05-10T05:34:50;14.70;;;6.15;;
59880;SDS011;45751;51.380;10.326;2023-05-10T05:37:19;14.70;;;6.60;;
59880;SDS011;45751;51.380;10.326;2023-05-10T05:39:47;11.77;;;5.63;;
59880;SDS011;45751;51.380;10.326;2023-05-10T05:42:14;12.50;;;5.68;;
59880;SDS011;45751;51.380;10.326;2023-05-10T05:44:42;21.95;;;6.20;;
59880;SDS011;45751;51.380;10.326;2023-05-10T05:47:09;15.57;;;6.35;;
59880;SDS011;45751;51.380;10.326;2023-05-10T05:49:36;15.15;;;5.88;;
59880;SDS011;45751;51.380;10.326;2023-05-10T05:52:03;11.95;;;5.07;;
59880;SDS011;45751;51.380;10.326;2023-05-10T05:54:31;14.10;;;6.55;;
59880;SDS011;45751;51.380;10.326;2023-05-10T05:56:58;14.40;;;6.30;;
59880;SDS011;45751;51.380;10.326;2023-05-10T05:59:26;12.52;;;6.10;;
59880;SDS011;45751;51.380;10.326;2023-05-10T06:01:54;16.98;;;6.50;;
59880;SDS011;45751;51.380;10.326;2023-05-10T06:04:21;12.88;;;5.72;;
59880;SDS011;45751;51.380;10.326;2023-05-10T06:06:48;18.77;;;5.75;;
59880;SDS011;45751;51.380;10.326;2023-05-10T06:09:15;15.27;;;5.70;;
59880;SDS011;45751;51.380;10.326;2023-05-10T06:11:42;12.55;;;5.20;;
59880;SDS011;45751;51.380;10.326;2023-05-10T06:14:09;12.80;;;6.35;;
59880;SDS011;45751;51.380;10.326;2023-05-10T06:16:37;13.02;;;5.40;;
59880;SDS011;45751;51.380;10.326;2023-05-10T06:19:04;11.52;;;4.90;;
59880;SDS011;45751;51.380;10.326;2023-05-10T06:21:30;12.35;;;3.92;;
59880;SDS011;45751;51.380;10.326;2023-05-10T06:23:57;9.75;;;3.88;;
59880;SDS011;45751;51.380;10.326;2023-05-10T06:26:24;11.43;;;4.35;;
59880;SDS011;45751;51.380;10.326;2023-05-10T06:28:51;13.18;;;4.18;;
59880;SDS011;45751;51.380;10.326;2023-05-10T06:31:18;11.52;;;4.38;;
59880;SDS011;45751;51.380;10.326;2023-05-10T06:33:45;11.85;;;3.55;;
59880;SDS011;45751;51.380;10.326;2023-05-10T06:36:12;13.90;;;4.30;;
59880;SDS011;45751;51.380;10.326;2023-05-10T06:38:39;9.40;;;3.22;;
59880;SDS011;45751;51.380;10.326;2023-05-10T06:41:06;9.63;;;3.20;;
59880;SDS011;45751;51.380;10.326;2023-05-10T06:43:33;9.68;;;3.13;;
59880;SDS011;45751;51.380;10.326;2023-05-10T06:46:00;9.60;;;3.88;;
59880;SDS011;45751;51.380;10.326;2023-05-10T06:48:26;8.93;;;2.80;;
59880;SDS011;45751;51.380;10.326;2023-05-10T06:50:53;11.05;;;3.22;;
59880;SDS011;45751;51.380;10.326;2023-05-10T06:53:20;9.40;;;3.30;;
59880;SDS011;45751;51.380;10.326;2023-05-10T06:55:48;9.18;;;3.30;;
59880;SDS011;45751;51.380;10.326;2023-05-10T06:58:15;9.23;;;3.42;;
59880;SDS011;45751;51.380;10.326;2023-05-10T07:00:42;8.32;;;2.70;;
59880;SDS011;45751;51.380;10.326;2023-05-10T07:03:11;11.38;;;3.13;;
59880;SDS011;45751;51.380;10.326;2023-05-10T07:05:38;7.72;;;2.30;;
59880;SDS011;45751;51.380;10.326;2023-05-10T07:08:05;7.63;;;2.53;;
59880;SDS011;45751;51.380;10.326;2023-05-10T07:10:32;7.03;;;2.17;;
59880;SDS011;45751;51.380;10.326;2023-05-10T07:12:59;10.00;;;2.60;;
59880;SDS011;45751;51.380;10.326;2023-05-10T07:15:27;7.35;;;2.33;;
59880;SDS011;45751;51.380;10.326;2023-05-10T07:17:54;6.63;;;1.85;;
59880;SDS011;45751;51.380;10.326;2023-05-10T07:20:21;7.68;;;2.50;;
59880;SDS011;45751;51.380;10.326;2023-05-10T07:22:48;8.82;;;2.45;;
59880;SDS011;45751;51.380;10.326;2023-05-10T07:25:15;6.43;;;2.17;;
59880;SDS011;45751;51.380;10.326;2023-05-10T07:27:42;9.75;;;3.38;;
59880;SDS011;45751;51.380;10.326;2023-05-10T07:30:09;6.65;;;1.85;;
59880;SDS011;45751;51.380;10.326;2023-05-10T07:32:37;6.05;;;1.98;;
59880;SDS011;45751;51.380;10.326;2023-05-10T07:35:05;5.72;;;1.73;;
59880;SDS011;45751;51.380;10.326;2023-05-10T07:37:33;5.88;;;1.80;;
59880;SDS011;45751;51.380;10.326;2023-05-10T07:40:00;5.47;;;1.45;;
59880;SDS011;45751;51.380;10.326;2023-05-10T07:42:26;6.50;;;1.70;;
59880;SDS011;45751;51.380;10.326;2023-05-10T07:44:53;6.40;;;1.85;;
59880;SDS011;45751;51.380;10.326;2023-05-10T07:47:20;5.85;;;1.60;;
59880;SDS011;45751;51.380;10.326;2023-05-10T07:49:47;6.07;;;1.67;;
59880;SDS011;45751;51.380;10.326;2023-05-10T07:52:14;4.80;;;1.10;;
59880;SDS011;45751;51.380;10.326;2023-05-10T07:54:41;6.88;;;1.50;;
59880;SDS011;45751;51.380;10.326;2023-05-10T07:57:08;6.47;;;1.80;;
59880;SDS011;45751;51.380;10.326;2023-05-10T07:59:35;5.78;;;1.38;;
59880;SDS011;45751;51.380;10.326;2023-05-10T08:02:02;6.38;;;1.70;;
59880;SDS011;45751;51.380;10.326;2023-05-10T08:04:29;7.95;;;1.65;;
59880;SDS011;45751;51.380;10.326;2023-05-10T08:06:56;5.85;;;1.55;;
59880;SDS011;45751;51.380;10.326;2023-05-10T08:09:23;6.65;;;1.83;;
59880;SDS011;45751;51.380;10.326;2023-05-10T08:11:50;5.97;;;1.80;;
59880;SDS011;45751;51.380;10.326;2023-05-10T08:14:17;5.80;;;1.73;;
59880;SDS011;45751;51.380;10.326;2023-05-10T08:16:44;6.10;;;1.77;;
59880;SDS011;45751;51.380;10.326;2023-05-10T08:19:11;6.70;;;1.58;;
59880;SDS011;45751;51.380;10.326;2023-05-10T08:21:38;5.70;;;1.55;;
59880;SDS011;45751;51.380;10.326;2023-05-10T08:24:06;5.43;;;1.42;;
59880;SDS011;45751;51.380;10.326;2023-05-10T08:26:33;5.88;;;1.58;;
59880;SDS011;45751;51.380;10.326;2023-05-10T08:29:00;4.93;;;1.30;;
59880;SDS011;45751;51.380;10.326;2023-05-10T08:31:33;5.90;;;1.38;;
59880;SDS011;45751;51.380;10.326;2023-05-10T08:34:01;4.35;;;1.20;;
59880;SDS011;45751;51.380;10.326;2023-05-10T08:36:28;11.15;;;3.10;;
59880;SDS011;45751;51.380;10.326;2023-05-10T08:38:55;6.22;;;1.60;;
59880;SDS011;45751;51.380;10.326;2023-05-10T08:41:23;4.75;;;1.58;;
59880;SDS011;45751;51.380;10.326;2023-05-10T08:43:52;5.20;;;1.63;;
59880;SDS011;45751;51.380;10.326;2023-05-10T08:46:21;6.30;;;1.67;;
59880;SDS011;45751;51.380;10.326;2023-05-10T08:48:50;4.85;;;1.38;;
59880;SDS011;45751;51.380;10.326;2023-05-10T08:51:19;5.25;;;1.70;;
59880;SDS011;45751;51.380;10.326;2023-05-10T08:53:48;5.25;;;1.40;;
59880;SDS011;45751;51.380;10.326;2023-05-10T08:56:16;5.95;;;1.73;;
59880;SDS011;45751;51.380;10.326;2023-05-10T08:58:44;5.32;;;1.70;;
59880;SDS011;45751;51.380;10.326;2023-05-10T09:01:11;6.85;;;1.73;;
59880;SDS011;45751;51.380;10.326;2023-05-10T09:03:40;5.18;;;1.33;;
59880;SDS011;45751;51.380;10.326;2023-05-10T09:06:07;4.97;;;1.13;;
59880;SDS011;45751;51.380;10.326;2023-05-10T09:08:34;4.80;;;0.95;;
59880;SDS011;45751;51.380;10.326;2023-05-10T09:11:02;4.35;;;1.13;;
59880;SDS011;45751;51.380;10.326;2023-05-10T09:13:29;4.22;;;1.02;;
59880;SDS011;45751;51.380;10.326;2023-05-10T09:15:57;5.20;;;1.70;;
59880;SDS011;45751;51.380;10.326;2023-05-10T09:18:39;4.60;;;1.15;;
59880;SDS011;45751;51.380;10.326;2023-05-10T09:21:05;4.90;;;1.27;;
59880;SDS011;45751;51.380;10.326;2023-05-10T09:23:32;4.13;;;1.23;;
59880;SDS011;45751;51.380;10.326;2023-05-10T09:26:03;6.05;;;1.23;;
59880;SDS011;45751;51.380;10.326;2023-05-10T09:28:34;5.32;;;1.38;;
59880;SDS011;45751;51.380;10.326;2023-05-10T09:31:16;10.52;;;1.38;;
59880;SDS011;45751;51.380;10.326;2023-05-10T09:33:46;4.32;;;1.13;;
59880;SDS011;45751;51.380;10.326;2023-05-10T09:36:14;5.93;;;1.67;;
59880;SDS011;45751;51.380;10.326;2023-05-10T09:38:48;5.30;;;1.30;;
59880;SDS011;45751;51.380;10.326;2023-05-10T09:41:21;6.30;;;1.80;;
59880;SDS011;45751;51.380;10.326;2023-05-10T09:43:49;5.45;;;1.50;;
59880;SDS011;45751;51.380;10.326;2023-05-10T09:46:16;6.65;;;1.50;;
59880;SDS011;45751;51.380;10.326;2023-05-10T09:48:46;5.15;;;1.45;;
59880;SDS011;45751;51.380;10.326;2023-05-10T09:54:08;5.07;;;1.38;;
59880;SDS011;45751;51.380;10.326;2023-05-10T09:56:37;5.25;;;1.35;;
59880;SDS011;45751;51.380;10.326;2023-05-10T09:59:07;4.93;;;1.30;;
59880;SDS011;45751;51.380;10.326;2023-05-10T10:01:36;7.07;;;1.70;;
59880;SDS011;45751;51.380;10.326;2023-05-10T10:04:04;8.52;;;1.92;;
59880;SDS011;45751;51.380;10.326;2023-05-10T10:06:38;6.47;;;1.63;;
59880;SDS011;45751;51.380;10.326;2023-05-10T10:09:06;5.75;;;1.80;;
59880;SDS011;45751;51.380;10.326;2023-05-10T10:11:34;5.72;;;1.60;;
59880;SDS011;45751;51.380;10.326;2023-05-10T10:14:02;7.63;;;1.80;;
59880;SDS011;45751;51.380;10.326;2023-05-10T10:16:31;5.60;;;1.42;;
59880;SDS011;45751;51.380;10.326;2023-05-10T10:18:59;5.63;;;1.30;;
59880;SDS011;45751;51.380;10.326;2023-05-10T10:21:26;5.30;;;1.38;;
59880;SDS011;45751;51.380;10.326;2023-05-10T10:23:56;5.18;;;1.38;;
59880;SDS011;45751;51.380;10.326;2023-05-10T10:26:23;6.78;;;1.67;;
59880;SDS011;45751;51.380;10.326;2023-05-10T10:28:56;6.43;;;1.80;;
59880;SDS011;45751;51.380;10.326;2023-05-10T10:31:44;4.15;;;1.10;;
59880;SDS011;45751;51.380;10.326;2023-05-10T10:34:22;5.53;;;1.08;;
59880;SDS011;45751;51.380;10.326;2023-05-10T10:36:56;4.88;;;1.10;;
59880;SDS011;45751;51.380;10.326;2023-05-10T10:39:24;4.82;;;1.00;;
59880;SDS011;45751;51.380;10.326;2023-05-10T10:41:55;5.32;;;1.10;;
59880;SDS011;45751;51.380;10.326;2023-05-10T10:50:02;4.10;;;0.93;;
59880;SDS011;45751;51.380;10.326;2023-05-10T10:52:31;4.40;;;1.10;;
59880;SDS011;45751;51.380;10.326;2023-05-10T10:55:12;4.07;;;1.00;;
59880;SDS011;45751;51.380;10.326;2023-05-10T10:57:57;4.55;;;1.10;;
59880;SDS011;45751;51.380;10.326;2023-05-10T11:00:37;5.22;;;1.00;;
59880;SDS011;45751;51.380;10.326;2023-05-10T11:03:10;5.40;;;1.23;;
59880;SDS011;45751;51.380;10.326;2023-05-10T11:05:45;4.10;;;1.10;;
59880;SDS011;45751;51.380;10.326;2023-05-10T11:08:13;5.13;;;1.60;;
59880;SDS011;45751;51.380;10.326;2023-05-10T11:10:49;4.57;;;1.02;;
59880;SDS011;45751;51.380;10.326;2023-05-10T11:13:26;4.93;;;1.02;;
59880;SDS011;45751;51.380;10.326;2023-05-10T11:18:37;5.68;;;1.00;;
59880;SDS011;45751;51.380;10.326;2023-05-10T11:21:04;4.15;;;1.10;;
59880;SDS011;45751;51.380;10.326;2023-05-10T11:23:32;7.65;;;1.33;;
59880;SDS011;45751;51.380;10.326;2023-05-10T11:26:14;5.22;;;1.48;;
59880;SDS011;45751;51.380;10.326;2023-05-10T11:28:41;5.03;;;1.10;;
59880;SDS011;45751;51.380;10.326;2023-05-10T11:31:15;4.28;;;1.10;;
59880;SDS011;45751;51.380;10.326;2023-05-10T11:36:11;4.85;;;1.00;;
59880;SDS011;45751;51.380;10.326;2023-05-10T11:38:40;5.10;;;1.40;;
59880;SDS011;45751;51.380;10.326;2023-05-10T11:41:10;7.90;;;1.40;;
59880;SDS011;45751;51.380;10.326;2023-05-10T11:43:38;4.00;;;0.90;;
59880;SDS011;45751;51.380;10.326;2023-05-10T11:46:07;3.45;;;0.80;;
59880;SDS011;45751;51.380;10.326;2023-05-10T11:48:36;5.28;;;1.00;;
59880;SDS011;45751;51.380;10.326;2023-05-10T11:51:06;3.47;;;0.80;;
59880;SDS011;45751;51.380;10.326;2023-05-10T11:53:33;4.30;;;0.90;;
59880;SDS011;45751;51.380;10.326;2023-05-10T11:56:07;5.43;;;1.35;;
59880;SDS011;45751;51.380;10.326;2023-05-10T11:58:36;3.75;;;1.05;;
59880;SDS011;45751;51.380;10.326;2023-05-10T12:01:04;5.18;;;1.13;;
59880;SDS011;45751;51.380;10.326;2023-05-10T12:03:32;4.78;;;1.10;;
59880;SDS011;45751;51.380;10.326;2023-05-10T12:06:01;5.88;;;1.30;;
59880;SDS011;45751;51.380;10.326;2023-05-10T12:08:29;6.90;;;1.20;;
59880;SDS011;45751;51.380;10.326;2023-05-10T12:11:04;6.22;;;1.52;;
59880;SDS011;45751;51.380;10.326;2023-05-10T12:13:42;4.82;;;1.20;;
59880;SDS011;45751;51.380;10.326;2023-05-10T12:16:16;4.10;;;0.90;;
59880;SDS011;45751;51.380;10.326;2023-05-10T12:18:45;5.82;;;1.13;;
59880;SDS011;45751;51.380;10.326;2023-05-10T12:21:14;6.38;;;1.08;;
59880;SDS011;45751;51.380;10.326;2023-05-10T12:23:41;4.78;;;1.10;;
59880;SDS011;45751;51.380;10.326;2023-05-10T12:26:09;4.55;;;1.08;;
59880;SDS011;45751;51.380;10.326;2023-05-10T12:28:36;4.50;;;1.00;;
59880;SDS011;45751;51.380;10.326;2023-05-10T12:31:05;4.28;;;1.00;;
59880;SDS011;45751;51.380;10.326;2023-05-10T12:33:37;5.47;;;1.02;;
59880;SDS011;45751;51.380;10.326;2023-05-10T12:36:09;3.75;;;0.90;;
59880;SDS011;45751;51.380;10.326;2023-05-10T12:38:38;6.80;;;1.30;;
59880;SDS011;45751;51.380;10.326;2023-05-10T12:41:09;4.00;;;0.90;;
59880;SDS011;45751;51.380;10.326;2023-05-10T12:43:37;4.82;;;1.00;;
59880;SDS011;45751;51.380;10.326;2023-05-10T12:46:08;4.60;;;1.00;;
59880;SDS011;45751;51.380;10.326;2023-05-10T12:48:37;3.55;;;0.80;;
59880;SDS011;45751;51.380;10.326;2023-05-10T12:51:05;7.15;;;1.02;;
59880;SDS011;45751;51.380;10.326;2023-05-10T12:53:35;4.05;;;0.82;;
59880;SDS011;45751;51.380;10.326;2023-05-10T12:56:03;4.35;;;1.00;;
59880;SDS011;45751;51.380;10.326;2023-05-10T12:58:30;4.50;;;1.35;;
59880;SDS011;45751;51.380;10.326;2023-05-10T13:01:01;3.70;;;0.95;;
59880;SDS011;45751;51.380;10.326;2023-05-10T13:03:29;4.22;;;0.93;;
59880;SDS011;45751;51.380;10.326;2023-05-10T13:05:56;5.72;;;1.00;;
59880;SDS011;45751;51.380;10.326;2023-05-10T13:08:23;7.10;;;1.38;;
59880;SDS011;45751;51.380;10.326;2023-05-10T13:10:51;6.65;;;1.63;;
59880;SDS011;45751;51.380;10.326;2023-05-10T13:13:18;5.80;;;1.40;;
59880;SDS011;45751;51.380;10.326;2023-05-10T13:15:44;7.22;;;1.55;;
59880;SDS011;45751;51.380;10.326;2023-05-10T13:18:11;6.40;;;1.55;;
59880;SDS011;45751;51.380;10.326;2023-05-10T13:20:38;6.35;;;1.42;;
59880;SDS011;45751;51.380;10.326;2023-05-10T13:23:05;6.03;;;1.40;;
59880;SDS011;45751;51.380;10.326;2023-05-10T13:25:32;4.95;;;1.30;;
59880;SDS011;45751;51.380;10.326;2023-05-10T13:28:00;4.50;;;1.20;;
59880;SDS011;45751;51.380;10.326;2023-05-10T13:30:27;5.15;;;1.40;;
59880;SDS011;45751;51.380;10.326;2023-05-10T13:32:55;6.82;;;1.52;;
59880;SDS011;45751;51.380;10.326;2023-05-10T13:35:22;5.93;;;1.65;;
59880;SDS011;45751;51.380;10.326;2023-05-10T13:37:49;5.82;;;1.50;;
59880;SDS011;45751;51.380;10.326;2023-05-10T13:40:16;5.40;;;1.30;;
59880;SDS011;45751;51.380;10.326;2023-05-10T13:42:43;5.00;;;1.45;;
59880;SDS011;45751;51.380;10.326;2023-05-10T13:45:10;5.40;;;1.50;;
59880;SDS011;45751;51.380;10.326;2023-05-10T13:47:38;6.65;;;1.40;;
59880;SDS011;45751;51.380;10.326;2023-05-10T13:50:06;5.22;;;1.20;;
59880;SDS011;45751;51.380;10.326;2023-05-10T13:52:33;6.35;;;1.50;;
59880;SDS011;45751;51.380;10.326;2023-05-10T13:55:00;5.65;;;1.55;;
59880;SDS011;45751;51.380;10.326;2023-05-10T13:57:27;6.90;;;1.90;;
59880;SDS011;45751;51.380;10.326;2023-05-10T13:59:55;5.80;;;1.40;;
59880;SDS011;45751;51.380;10.326;2023-05-10T14:02:23;6.50;;;2.08;;
59880;SDS011;45751;51.380;10.326;2023-05-10T14:04:51;6.50;;;1.55;;
59880;SDS011;45751;51.380;10.326;2023-05-10T14:07:17;5.75;;;1.63;;
59880;SDS011;45751;51.380;10.326;2023-05-10T14:09:45;6.00;;;1.60;;
59880;SDS011;45751;51.380;10.326;2023-05-10T14:12:12;4.80;;;1.20;;
59880;SDS011;45751;51.380;10.326;2023-05-10T14:14:40;4.63;;;1.10;;
59880;SDS011;45751;51.380;10.326;2023-05-10T14:17:07;6.43;;;1.52;;
59880;SDS011;45751;51.380;10.326;2023-05-10T14:19:37;7.30;;;2.00;;
59880;SDS011;45751;51.380;10.326;2023-05-10T14:22:05;6.10;;;1.50;;
59880;SDS011;45751;51.380;10.326;2023-05-10T14:24:32;4.97;;;1.30;;
59880;SDS011;45751;51.380;10.326;2023-05-10T14:26:59;6.38;;;1.38;;
59880;SDS011;45751;51.380;10.326;2023-05-10T14:29:26;5.75;;;1.30;;
59880;SDS011;45751;51.380;10.326;2023-05-10T14:31:53;5.28;;;1.20;;
59880;SDS011;45751;51.380;10.326;2023-05-10T14:34:20;5.88;;;1.80;;
59880;SDS011;45751;51.380;10.326;2023-05-10T14:36:47;8.13;;;1.88;;
59880;SDS011;45751;51.380;10.326;2023-05-10T14:39:14;6.40;;;1.70;;
59880;SDS011;45751;51.380;10.326;2023-05-10T14:41:41;8.15;;;2.03;;
59880;SDS011;45751;51.380;10.326;2023-05-10T14:44:09;7.47;;;2.20;;
59880;SDS011;45751;51.380;10.326;2023-05-10T14:46:36;6.65;;;1.92;;
59880;SDS011;45751;51.380;10.326;2023-05-10T14:49:03;7.03;;;1.92;;
59880;SDS011;45751;51.380;10.326;2023-05-10T14:51:30;9.15;;;1.90;;
59880;SDS011;45751;51.380;10.326;2023-05-10T14:53:58;9.57;;;2.55;;
59880;SDS011;45751;51.380;10.326;2023-05-10T14:56:25;6.63;;;1.88;;
59880;SDS011;45751;51.380;10.326;2023-05-10T14:58:52;5.72;;;1.70;;
59880;SDS011;45751;51.380;10.326;2023-05-10T15:01:19;9.43;;;3.10;;
59880;SDS011;45751;51.380;10.326;2023-05-10T15:03:47;7.85;;;2.20;;
59880;SDS011;45751;51.380;10.326;2023-05-10T15:06:14;10.88;;;3.85;;
59880;SDS011;45751;51.380;10.326;2023-05-10T15:08:44;18.25;;;5.22;;
59880;SDS011;45751;51.380;10.326;2023-05-10T15:11:11;10.18;;;3.30;;